createdAt,value
2023-05-09T00:00:08.356Z,518.00
2023-05-09T00:01:08.388Z,520.00
2023-05-09T00:02:08.455Z,519.00
2023-05-09T00:03:08.494Z,516.00
2023-05-09T00:04:08.516Z,518.00
2023-05-09T00:05:08.522Z,519.00
2023-05-09T00:06:08.614Z,517.00
2023-05-09T00:07:08.556Z,517.00
2023-05-09T00:08:08.565Z,517.00
2023-05-09T00:09:08.622Z,515.00
2023-05-09T00:10:08.695Z,516.00
2023-05-09T00:11:08.666Z,517.00
2023-05-09T00:12:08.707Z,518.00
2023-05-09T00:13:08.768Z,519.00
2023-05-09T00:14:08.809Z,520.00
2023-05-09T00:15:08.784Z,518.00
2023-05-09T00:16:08.875Z,514.00
2023-05-09T00:17:08.858Z,512.00
2023-05-09T00:18:08.883Z,511.00
2023-05-09T00:19:08.905Z,511.00
2023-05-09T00:20:08.938Z,512.00
2023-05-09T00:21:08.944Z,513.00
2023-05-09T00:22:09.062Z,512.00
2023-05-09T00:23:09.015Z,514.00
2023-05-09T00:24:09.067Z,515.00
2023-05-09T00:25:09.057Z,516.00
2023-05-09T00:26:09.108Z,511.00
2023-05-09T00:27:09.120Z,511.00
2023-05-09T00:28:09.163Z,510.00
2023-05-09T00:29:09.166Z,509.00
2023-05-09T00:30:09.167Z,511.00
2023-05-09T00:31:09.208Z,510.00
2023-05-09T00:32:09.403Z,509.00
2023-05-09T00:33:09.286Z,511.00
2023-05-09T00:34:09.269Z,512.00
2023-05-09T00:35:09.304Z,514.00
2023-05-09T00:36:09.307Z,514.00
2023-05-09T00:37:09.358Z,512.00
2023-05-09T00:38:09.455Z,510.00
2023-05-09T00:39:09.370Z,508.00
2023-05-09T00:40:09.430Z,505.00
2023-05-09T00:41:09.475Z,504.00
2023-05-09T00:42:09.838Z,503.00
2023-05-09T00:43:09.508Z,502.00
2023-05-09T00:44:09.553Z,501.00
2023-05-09T00:45:09.573Z,502.00
2023-05-09T00:46:09.660Z,503.00
2023-05-09T00:47:09.637Z,504.00
2023-05-09T00:48:09.644Z,504.00
2023-05-09T00:49:09.677Z,501.00
2023-05-09T00:50:09.691Z,501.00
2023-05-09T00:51:09.733Z,500.00
2023-05-09T00:52:09.872Z,499.00
2023-05-09T00:53:09.772Z,500.00
2023-05-09T00:54:09.921Z,502.00
2023-05-09T00:55:09.831Z,504.00
2023-05-09T00:56:09.863Z,506.00
2023-05-09T00:57:09.913Z,506.00
2023-05-09T00:58:09.951Z,505.00
2023-05-09T00:59:09.976Z,504.00
2023-05-09T01:00:10.003Z,501.00
2023-05-09T01:01:10.028Z,501.00
2023-05-09T01:02:10.023Z,504.00
2023-05-09T01:03:10.123Z,503.00
2023-05-09T01:04:10.084Z,503.00
2023-05-09T01:05:10.118Z,504.00
2023-05-09T01:06:10.176Z,506.00
2023-05-09T01:07:10.193Z,506.00
2023-05-09T01:08:10.202Z,508.00
2023-05-09T01:09:10.268Z,510.00
2023-05-09T01:10:10.355Z,508.00
2023-05-09T01:11:10.270Z,508.00
2023-05-09T01:12:10.345Z,507.00
2023-05-09T01:13:10.399Z,507.00
2023-05-09T01:14:10.400Z,506.00
2023-05-09T01:15:10.417Z,506.00
2023-05-09T01:16:10.521Z,507.00
2023-05-09T01:17:10.494Z,507.00
2023-05-09T01:18:10.548Z,507.00
2023-05-09T01:19:10.537Z,506.00
2023-05-09T01:20:10.570Z,508.00
2023-05-09T01:21:10.568Z,509.00
2023-05-09T01:22:10.593Z,508.00
2023-05-09T01:23:10.640Z,509.00
2023-05-09T01:24:10.699Z,511.00
2023-05-09T01:25:10.712Z,510.00
2023-05-09T01:26:10.807Z,510.00
2023-05-09T01:27:10.767Z,509.00
2023-05-09T01:28:10.786Z,510.00
2023-05-09T01:29:10.824Z,507.00
2023-05-09T01:30:10.891Z,506.00
2023-05-09T01:31:10.880Z,506.00
2023-05-09T01:32:10.883Z,507.00
2023-05-09T01:33:10.983Z,508.00
2023-05-09T01:34:10.966Z,507.00
2023-05-09T01:35:10.959Z,506.00
2023-05-09T01:36:10.970Z,505.00
2023-05-09T01:37:11.036Z,504.00
2023-05-09T01:38:11.046Z,505.00
2023-05-09T01:39:11.064Z,505.00
2023-05-09T01:40:11.093Z,505.00
2023-05-09T01:41:11.117Z,504.00
2023-05-09T01:42:11.230Z,505.00
2023-05-09T01:43:11.180Z,504.00
2023-05-09T01:44:11.297Z,506.00
2023-05-09T01:45:11.270Z,508.00
2023-05-09T01:46:11.315Z,508.00
2023-05-09T01:47:11.323Z,506.00
2023-05-09T01:48:11.304Z,506.00
2023-05-09T01:49:11.331Z,507.00
2023-05-09T01:50:11.371Z,508.00
2023-05-09T01:51:11.417Z,508.00
2023-05-09T01:52:11.462Z,509.00
2023-05-09T01:53:11.450Z,508.00
2023-05-09T01:54:11.515Z,507.00
2023-05-09T01:55:11.619Z,505.00
2023-05-09T01:56:11.572Z,503.00
2023-05-09T01:57:11.590Z,502.00
2023-05-09T01:58:11.682Z,500.00
2023-05-09T01:59:11.640Z,500.00
2023-05-09T02:00:11.682Z,499.00
2023-05-09T02:01:11.713Z,500.00
2023-05-09T02:02:11.893Z,501.00
2023-05-09T02:03:11.812Z,501.00
2023-05-09T02:04:11.805Z,502.00
2023-05-09T02:05:12.128Z,504.00
2023-05-09T02:06:11.812Z,508.00
2023-05-09T02:07:11.896Z,508.00
2023-05-09T02:08:11.922Z,506.00
2023-05-09T02:09:11.940Z,506.00
2023-05-09T02:10:12.012Z,505.00
2023-05-09T02:11:12.037Z,507.00
2023-05-09T02:12:12.043Z,509.00
2023-05-09T02:13:12.090Z,509.00
2023-05-09T02:14:12.200Z,508.00
2023-05-09T02:15:12.329Z,507.00
2023-05-09T02:16:12.184Z,506.00
2023-05-09T02:17:12.197Z,504.00
2023-05-09T02:18:12.247Z,503.00
2023-05-09T02:19:12.276Z,502.00
2023-05-09T02:20:12.288Z,504.00
2023-05-09T02:21:12.391Z,503.00
2023-05-09T02:22:12.379Z,501.00
2023-05-09T02:23:12.378Z,498.00
2023-05-09T02:24:12.406Z,498.00
2023-05-09T02:25:12.594Z,501.00
2023-05-09T02:26:12.468Z,502.00
2023-05-09T02:27:12.480Z,504.00
2023-05-09T02:28:12.520Z,506.00
2023-05-09T02:29:12.549Z,507.00
2023-05-09T02:30:12.667Z,503.00
2023-05-09T02:31:12.596Z,505.00
2023-05-09T02:32:12.672Z,504.00
2023-05-09T02:33:12.766Z,503.00
2023-05-09T02:34:12.747Z,502.00
2023-05-09T02:35:12.863Z,505.00
2023-05-09T02:36:12.791Z,506.00
2023-05-09T02:37:12.823Z,506.00
2023-05-09T02:38:12.840Z,506.00
2023-05-09T02:39:12.867Z,503.00
2023-05-09T02:40:12.951Z,500.00
2023-05-09T02:41:12.973Z,502.00
2023-05-09T02:42:13.406Z,504.00
2023-05-09T02:43:13.028Z,503.00
2023-05-09T02:44:13.084Z,505.00
2023-05-09T02:45:13.375Z,507.00
2023-05-09T02:46:13.214Z,507.00
2023-05-09T02:47:13.173Z,508.00
2023-05-09T02:48:13.261Z,507.00
2023-05-09T02:49:22.792Z,507.00
2023-05-09T02:50:14.206Z,508.00
2023-05-09T02:51:13.221Z,508.00
2023-05-09T02:52:13.211Z,509.00
2023-05-09T02:53:13.211Z,507.00
2023-05-09T02:54:13.209Z,508.00
2023-05-09T02:55:13.331Z,506.00
2023-05-09T02:56:13.159Z,505.00
2023-05-09T02:57:13.404Z,503.00
2023-05-09T02:58:14.829Z,501.00
2023-05-09T02:59:13.159Z,500.00
2023-05-09T03:00:13.128Z,502.00
2023-05-09T03:01:13.125Z,502.00
2023-05-09T03:02:13.492Z,503.00
2023-05-09T03:03:13.228Z,501.00
2023-05-09T03:04:13.216Z,501.00
2023-05-09T03:05:13.528Z,503.00
2023-05-09T03:06:13.266Z,503.00
2023-05-09T03:07:13.290Z,504.00
2023-05-09T03:08:13.332Z,505.00
2023-05-09T03:09:13.435Z,506.00
2023-05-09T03:10:13.436Z,506.00
2023-05-09T03:11:13.439Z,506.00
2023-05-09T03:12:13.491Z,505.00
2023-05-09T03:13:13.661Z,503.00
2023-05-09T03:14:13.545Z,502.00
2023-05-09T03:15:13.951Z,502.00
2023-05-09T03:16:13.656Z,503.00
2023-05-09T03:17:13.667Z,502.00
2023-05-09T03:18:13.765Z,500.00
2023-05-09T03:19:13.726Z,499.00
2023-05-09T03:20:13.761Z,502.00
2023-05-09T03:21:13.779Z,502.00
2023-05-09T03:22:13.809Z,501.00
2023-05-09T03:23:13.868Z,502.00
2023-05-09T03:24:13.905Z,502.00
2023-05-09T03:25:14.191Z,501.00
2023-05-09T03:26:14.012Z,503.00
2023-05-09T03:27:14.403Z,502.00
2023-05-09T03:28:14.049Z,502.00
2023-05-09T03:29:14.116Z,503.00
2023-05-09T03:30:14.101Z,505.00
2023-05-09T03:31:14.212Z,506.00
2023-05-09T03:32:15.325Z,506.00
2023-05-09T03:33:14.249Z,507.00
2023-05-09T03:34:14.353Z,509.00
2023-05-09T03:35:14.477Z,508.00
2023-05-09T03:36:14.314Z,504.00
2023-05-09T03:37:14.385Z,506.00
2023-05-09T03:38:14.400Z,505.00
2023-05-09T03:39:14.458Z,504.00
2023-05-09T03:40:14.486Z,502.00
2023-05-09T03:41:14.542Z,503.00
2023-05-09T03:42:14.558Z,504.00
2023-05-09T03:43:14.572Z,505.00
2023-05-09T03:44:14.629Z,506.00
2023-05-09T03:45:14.755Z,508.00
2023-05-09T03:46:14.677Z,505.00
2023-05-09T03:47:14.904Z,508.00
2023-05-09T03:48:14.770Z,509.00
2023-05-09T03:49:14.824Z,510.00
2023-05-09T03:50:14.954Z,509.00
2023-05-09T03:51:14.887Z,507.00
2023-05-09T03:52:14.915Z,506.00
2023-05-09T03:53:14.954Z,504.00
2023-05-09T03:54:14.976Z,504.00
2023-05-09T03:55:15.165Z,504.00
2023-05-09T03:56:15.040Z,507.00
2023-05-09T03:57:15.431Z,507.00
2023-05-09T03:58:15.112Z,508.00
2023-05-09T03:59:15.162Z,507.00
2023-05-09T04:00:15.202Z,509.00
2023-05-09T04:01:15.262Z,509.00
2023-05-09T04:02:15.334Z,507.00
2023-05-09T04:03:15.401Z,507.00
2023-05-09T04:04:15.360Z,504.00
2023-05-09T04:05:15.627Z,503.00
2023-05-09T04:06:15.518Z,504.00
2023-05-09T04:07:15.920Z,505.00
2023-05-09T04:08:15.539Z,505.00
2023-05-09T04:09:15.538Z,505.00
2023-05-09T04:10:15.607Z,502.00
2023-05-09T04:11:15.618Z,498.00
2023-05-09T04:12:15.679Z,500.00
2023-05-09T04:13:15.687Z,498.00
2023-05-09T04:14:15.703Z,500.00
2023-05-09T04:15:15.964Z,501.00
2023-05-09T04:16:15.821Z,501.00
2023-05-09T04:17:15.834Z,500.00
2023-05-09T04:18:15.845Z,497.00
2023-05-09T04:19:16.518Z,496.00
2023-05-09T04:20:15.912Z,496.00
2023-05-09T04:21:15.936Z,497.00
2023-05-09T04:22:16.099Z,495.00
2023-05-09T04:23:16.042Z,493.00
2023-05-09T04:24:16.050Z,496.00
2023-05-09T04:25:16.394Z,498.00
2023-05-09T04:26:16.144Z,499.00
2023-05-09T04:27:16.149Z,501.00
2023-05-09T04:28:16.199Z,502.00
2023-05-09T04:29:16.242Z,501.00
2023-05-09T04:30:16.306Z,501.00
2023-05-09T04:31:16.465Z,501.00
2023-05-09T04:32:16.503Z,503.00
2023-05-09T04:33:16.364Z,503.00
2023-05-09T04:34:16.410Z,503.00
2023-05-09T04:35:19.008Z,501.00
2023-05-09T04:36:16.445Z,500.00
2023-05-09T04:37:16.446Z,500.00
2023-05-09T04:38:16.496Z,503.00
2023-05-09T04:39:16.411Z,502.00
2023-05-09T04:40:16.414Z,502.00
2023-05-09T04:41:16.389Z,500.00
2023-05-09T04:42:16.454Z,501.00
2023-05-09T04:43:16.364Z,502.00
2023-05-09T04:44:16.357Z,501.00
2023-05-09T04:45:16.691Z,500.00
2023-05-09T04:46:16.370Z,501.00
2023-05-09T04:47:16.339Z,500.00
2023-05-09T04:48:16.353Z,500.00
2023-05-09T04:49:16.943Z,502.00
2023-05-09T04:50:16.329Z,504.00
2023-05-09T04:51:16.322Z,504.00
2023-05-09T04:52:16.323Z,504.00
2023-05-09T04:53:16.459Z,505.00
2023-05-09T04:54:16.397Z,504.00
2023-05-09T04:55:16.535Z,503.00
2023-05-09T04:56:16.275Z,503.00
2023-05-09T04:57:18.488Z,504.00
2023-05-09T04:58:16.299Z,506.00
2023-05-09T04:59:16.253Z,507.00
2023-05-09T05:00:16.286Z,506.00
2023-05-09T05:01:16.250Z,505.00
2023-05-09T05:02:16.258Z,506.00
2023-05-09T05:03:16.259Z,508.00
2023-05-09T05:04:16.247Z,507.00
2023-05-09T05:05:16.271Z,504.00
2023-05-09T05:06:16.229Z,502.00
2023-05-09T05:07:16.221Z,504.00
2023-05-09T05:08:16.248Z,504.00
2023-05-09T05:09:16.233Z,506.00
2023-05-09T05:10:16.302Z,505.00
2023-05-09T05:11:16.209Z,505.00
2023-05-09T05:12:16.191Z,503.00
2023-05-09T05:13:16.222Z,502.00
2023-05-09T05:14:16.173Z,502.00
2023-05-09T05:15:16.351Z,499.00
2023-05-09T05:16:16.176Z,498.00
2023-05-09T05:17:16.151Z,498.00
2023-05-09T05:18:16.130Z,499.00
2023-05-09T05:19:16.110Z,497.00
2023-05-09T05:20:16.118Z,498.00
2023-05-09T05:21:16.123Z,499.00
2023-05-09T05:22:16.130Z,500.00
2023-05-09T05:23:16.129Z,499.00
2023-05-09T05:24:16.097Z,503.00
2023-05-09T05:25:16.306Z,505.00
2023-05-09T05:26:16.158Z,509.00
2023-05-09T05:27:16.121Z,513.00
2023-05-09T05:28:16.047Z,515.00
2023-05-09T05:29:16.081Z,513.00
2023-05-09T05:30:16.087Z,516.00
2023-05-09T05:31:16.119Z,514.00
2023-05-09T05:32:16.049Z,510.00
2023-05-09T05:33:16.052Z,510.00
2023-05-09T05:34:16.036Z,510.00
2023-05-09T05:35:16.279Z,508.00
2023-05-09T05:36:16.006Z,506.00
2023-05-09T05:37:16.011Z,505.00
2023-05-09T05:38:16.028Z,505.00
2023-05-09T05:39:15.988Z,507.00
2023-05-09T05:40:16.007Z,508.00
2023-05-09T05:41:15.997Z,511.00
2023-05-09T05:42:16.072Z,521.00
2023-05-09T05:43:16.477Z,525.00
2023-05-09T05:44:15.966Z,530.00
2023-05-09T05:45:16.356Z,532.00
2023-05-09T05:46:15.987Z,541.00
2023-05-09T05:47:15.940Z,556.00
2023-05-09T05:48:15.921Z,575.00
2023-05-09T05:49:15.917Z,619.00
2023-05-09T05:50:15.926Z,637.00
2023-05-09T05:51:15.943Z,648.00
2023-05-09T05:52:15.913Z,659.00
2023-05-09T05:53:15.981Z,699.00
2023-05-09T05:54:15.924Z,731.00
2023-05-09T05:55:16.235Z,827.00
2023-05-09T05:56:16.007Z,832.00
2023-05-09T05:57:16.054Z,839.00
2023-05-09T05:58:16.555Z,852.00
2023-05-09T05:59:16.139Z,926.00
2023-05-09T06:00:16.107Z,967.00
2023-05-09T06:01:16.106Z,981.00
2023-05-09T06:02:16.184Z,971.00
2023-05-09T06:03:16.535Z,975.00
2023-05-09T06:04:16.286Z,1026.00
2023-05-09T06:05:16.477Z,1104.00
2023-05-09T06:06:16.221Z,1102.00
2023-05-09T06:07:16.200Z,1191.00
2023-05-09T06:08:16.487Z,1194.00
2023-05-09T06:09:16.220Z,1212.00
2023-05-09T06:10:16.269Z,1240.00
2023-05-09T06:11:16.282Z,1315.00
2023-05-09T06:12:16.344Z,1334.00
2023-05-09T06:13:16.504Z,1346.00
2023-05-09T06:14:16.526Z,1359.00
2023-05-09T06:15:16.802Z,1377.00
2023-05-09T06:16:19.950Z,1413.00
2023-05-09T06:17:16.660Z,1436.00
2023-05-09T06:18:16.513Z,1448.00
2023-05-09T06:19:16.517Z,1470.00
2023-05-09T06:20:16.470Z,1525.00
2023-05-09T06:21:16.498Z,1543.00
2023-05-09T06:22:16.467Z,1555.00
2023-05-09T06:23:16.475Z,1579.00
2023-05-09T06:24:23.841Z,1613.00
2023-05-09T06:25:17.505Z,1641.00
2023-05-09T06:26:16.452Z,1660.00
2023-05-09T06:27:16.433Z,1702.00
2023-05-09T06:28:16.434Z,1721.00
2023-05-09T06:29:16.419Z,1738.00
2023-05-09T06:30:25.349Z,1757.00
2023-05-09T06:31:17.446Z,1767.00
2023-05-09T06:32:16.384Z,1784.00
2023-05-09T06:33:16.411Z,1825.00
2023-05-09T06:34:16.365Z,1887.00
2023-05-09T06:35:16.534Z,1907.00
2023-05-09T06:36:16.382Z,1923.00
2023-05-09T06:37:16.367Z,1935.00
2023-05-09T06:38:16.368Z,1953.00
2023-05-09T06:39:16.434Z,1974.00
2023-05-09T06:40:16.339Z,2033.00
2023-05-09T06:41:16.357Z,2058.00
2023-05-09T06:42:16.361Z,2075.00
2023-05-09T06:43:16.484Z,2098.00
2023-05-09T06:44:16.307Z,2112.00
2023-05-09T06:45:16.732Z,2128.00
2023-05-09T06:46:16.570Z,2146.00
2023-05-09T06:47:16.466Z,2164.00
2023-05-09T06:48:16.527Z,2189.00
2023-05-09T06:49:16.537Z,2215.00
2023-05-09T06:50:16.594Z,2232.00
2023-05-09T06:51:16.621Z,2253.00
2023-05-09T06:52:16.669Z,2273.00
2023-05-09T06:53:16.756Z,2285.00
2023-05-09T06:54:16.799Z,2059.00
2023-05-09T06:55:17.006Z,2066.00
2023-05-09T06:56:17.895Z,2155.00
2023-05-09T06:57:17.042Z,2114.00
2023-05-09T06:58:17.495Z,2108.00
2023-05-09T06:59:17.117Z,2109.00
2023-05-09T07:00:17.189Z,2119.00
2023-05-09T07:01:17.275Z,2172.00
2023-05-09T07:02:17.407Z,2225.00
2023-05-09T07:03:17.378Z,2235.00
2023-05-09T07:04:17.408Z,2259.00
2023-05-09T07:05:17.719Z,2294.00
2023-05-09T07:06:17.464Z,2320.00
2023-05-09T07:07:17.498Z,2345.00
2023-05-09T07:08:17.584Z,2363.00
2023-05-09T07:09:17.603Z,2444.00
2023-05-09T07:10:17.654Z,2445.00
2023-05-09T07:11:17.696Z,2456.00
2023-05-09T07:12:17.740Z,2473.00
2023-05-09T07:13:17.827Z,2484.00
2023-05-09T07:14:17.816Z,2507.00
2023-05-09T07:15:25.931Z,2523.00
2023-05-09T07:16:18.923Z,2612.00
2023-05-09T07:17:23.264Z,2626.00
2023-05-09T07:18:18.935Z,2626.00
2023-05-09T07:19:17.808Z,2635.00
2023-05-09T07:20:17.785Z,2647.00
2023-05-09T07:21:17.816Z,2669.00
2023-05-09T07:22:17.867Z,2717.00
2023-05-09T07:23:17.809Z,2696.00
2023-05-09T07:24:17.782Z,2693.00
2023-05-09T07:25:17.792Z,2683.00
2023-05-09T07:26:17.796Z,2675.00
2023-05-09T07:27:17.865Z,2670.00
2023-05-09T07:28:17.770Z,2664.00
2023-05-09T07:29:17.736Z,2660.00
2023-05-09T07:30:17.725Z,2665.00
2023-05-09T07:31:17.786Z,2681.00
2023-05-09T07:32:17.941Z,2701.00
2023-05-09T07:33:17.812Z,2730.00
2023-05-09T07:34:17.952Z,2757.00
2023-05-09T07:35:17.916Z,2772.00
2023-05-09T07:36:17.898Z,2787.00
2023-05-09T07:37:17.906Z,2797.00
2023-05-09T07:38:18.010Z,2813.00
2023-05-09T07:39:17.997Z,2826.00
2023-05-09T07:40:18.265Z,2852.00
2023-05-09T07:41:18.047Z,2871.00
2023-05-09T07:42:18.085Z,2887.00
2023-05-09T07:43:18.076Z,2913.00
2023-05-09T07:44:18.082Z,2932.00
2023-05-09T07:45:19.013Z,2963.00
2023-05-09T07:46:18.183Z,2987.00
2023-05-09T07:47:18.217Z,3016.00
2023-05-09T07:48:18.496Z,3031.00
2023-05-09T07:49:18.257Z,3063.00
2023-05-09T07:50:18.365Z,3071.00
2023-05-09T07:51:18.296Z,3072.00
2023-05-09T07:52:18.353Z,3055.00
2023-05-09T07:53:18.389Z,3024.00
2023-05-09T07:54:18.463Z,3010.00
2023-05-09T07:55:18.612Z,3011.00
2023-05-09T07:56:18.519Z,3004.00
2023-05-09T07:57:18.548Z,3021.00
2023-05-09T07:58:18.561Z,3018.00
2023-05-09T07:59:18.651Z,3004.00
2023-05-09T08:00:18.656Z,1522.00
2023-05-09T08:01:18.716Z,1558.00
2023-05-09T08:02:18.799Z,1098.00
2023-05-09T08:03:19.006Z,1047.00
2023-05-09T08:04:18.808Z,811.00
2023-05-09T08:05:18.800Z,713.00
2023-05-09T08:06:18.924Z,689.00
2023-05-09T08:07:18.858Z,625.00
2023-05-09T08:08:18.968Z,607.00
2023-05-09T08:09:18.910Z,599.00
2023-05-09T08:10:18.957Z,599.00
2023-05-09T08:11:18.996Z,600.00
2023-05-09T08:12:19.077Z,600.00
2023-05-09T08:13:19.147Z,591.00
2023-05-09T08:14:19.157Z,584.00
2023-05-09T08:15:19.194Z,584.00
2023-05-09T08:16:19.256Z,586.00
2023-05-09T08:17:19.245Z,588.00
2023-05-09T08:18:19.289Z,579.00
2023-05-09T08:19:19.291Z,670.00
2023-05-09T08:20:19.397Z,800.00
2023-05-09T08:21:22.069Z,970.00
2023-05-09T08:22:19.448Z,978.00
2023-05-09T08:23:19.390Z,967.00
2023-05-09T08:24:19.378Z,961.00
2023-05-09T08:25:19.339Z,955.00
2023-05-09T08:26:19.339Z,950.00
2023-05-09T08:27:19.361Z,948.00
2023-05-09T08:28:19.317Z,952.00
2023-05-09T08:29:19.320Z,962.00
2023-05-09T08:30:19.312Z,969.00
2023-05-09T08:31:19.357Z,977.00
2023-05-09T08:32:19.306Z,985.00
2023-05-09T08:33:19.303Z,994.00
2023-05-09T08:34:19.309Z,1005.00
2023-05-09T08:35:19.262Z,1015.00
2023-05-09T08:36:19.244Z,1027.00
2023-05-09T08:37:19.278Z,1042.00
2023-05-09T08:38:19.338Z,1056.00
2023-05-09T08:39:19.522Z,1073.00
2023-05-09T08:40:19.242Z,1090.00
2023-05-09T08:41:19.247Z,1108.00
2023-05-09T08:42:19.258Z,1190.00
2023-05-09T08:43:19.238Z,1189.00
2023-05-09T08:44:19.542Z,1204.00
2023-05-09T08:45:19.210Z,1222.00
2023-05-09T08:46:19.226Z,1322.00
2023-05-09T08:47:19.250Z,1337.00
2023-05-09T08:48:19.205Z,1021.00
2023-05-09T08:49:19.537Z,1221.00
2023-05-09T08:50:19.183Z,1291.00
2023-05-09T08:51:19.160Z,1277.00
2023-05-09T08:52:19.137Z,807.00
2023-05-09T08:53:19.146Z,1222.00
2023-05-09T08:54:22.164Z,759.00
2023-05-09T08:55:19.117Z,1086.00
2023-05-09T08:56:19.106Z,1211.00
2023-05-09T08:57:19.157Z,904.00
2023-05-09T08:58:19.136Z,1085.00
2023-05-09T08:59:19.155Z,1061.00
2023-05-09T09:00:20.647Z,1074.00
2023-05-09T09:01:19.125Z,1136.00
2023-05-09T09:02:19.102Z,1173.00
2023-05-09T09:03:19.068Z,1196.00
2023-05-09T09:04:19.548Z,1216.00
2023-05-09T09:05:34.632Z,1247.00
2023-05-09T09:06:20.073Z,1257.00
2023-05-09T09:07:19.052Z,1265.00
2023-05-09T09:08:19.096Z,1268.00
2023-05-09T09:09:19.544Z,1272.00
2023-05-09T09:10:19.120Z,1275.00
2023-05-09T09:11:19.024Z,1281.00
2023-05-09T09:12:19.035Z,1282.00
2023-05-09T09:13:19.106Z,1283.00
2023-05-09T09:14:18.996Z,1287.00
2023-05-09T09:15:18.996Z,1097.00
2023-05-09T09:16:19.049Z,1130.00
2023-05-09T09:17:19.086Z,1191.00
2023-05-09T09:18:19.120Z,1162.00
2023-05-09T09:19:19.547Z,1199.00
2023-05-09T09:20:19.203Z,1222.00
2023-05-09T09:21:19.278Z,1235.00
2023-05-09T09:22:19.338Z,770.00
2023-05-09T09:23:19.357Z,637.00
2023-05-09T09:24:19.412Z,1141.00
2023-05-09T09:25:19.499Z,700.00
2023-05-09T09:26:19.573Z,671.00
2023-05-09T09:27:19.536Z,568.00
2023-05-09T09:28:19.565Z,558.00
2023-05-09T09:29:19.593Z,877.00
2023-05-09T09:30:19.653Z,638.00
2023-05-09T09:31:19.712Z,628.00
2023-05-09T09:32:19.703Z,796.00
2023-05-09T09:33:19.694Z,754.00
2023-05-09T09:34:19.729Z,838.00
2023-05-09T09:35:19.715Z,850.00
2023-05-09T09:36:19.726Z,885.00
2023-05-09T09:37:19.784Z,902.00
2023-05-09T09:38:19.784Z,915.00
2023-05-09T09:39:19.812Z,931.00
2023-05-09T09:40:19.869Z,986.00
2023-05-09T09:41:19.908Z,1009.00
2023-05-09T09:42:20.036Z,1025.00
2023-05-09T09:43:19.994Z,1101.00
2023-05-09T09:44:20.066Z,1116.00
2023-05-09T09:45:20.159Z,1138.00
2023-05-09T09:46:20.156Z,1172.00
2023-05-09T09:47:20.139Z,1186.00
2023-05-09T09:48:20.181Z,1196.00
2023-05-09T09:49:20.228Z,1179.00
2023-05-09T09:50:20.349Z,1171.00
2023-05-09T09:51:20.317Z,1150.00
2023-05-09T09:52:20.369Z,1132.00
2023-05-09T09:53:20.392Z,1132.00
2023-05-09T09:54:20.527Z,1140.00
2023-05-09T09:55:20.472Z,1129.00
2023-05-09T09:56:20.513Z,1118.00
2023-05-09T09:57:20.554Z,1129.00
2023-05-09T09:58:20.705Z,1140.00
2023-05-09T09:59:20.677Z,1149.00
2023-05-09T10:00:20.673Z,1164.00
2023-05-09T10:01:20.829Z,1177.00
2023-05-09T10:02:20.760Z,1196.00
2023-05-09T10:03:20.898Z,1216.00
2023-05-09T10:04:20.860Z,1276.00
2023-05-09T10:05:20.874Z,1306.00
2023-05-09T10:06:20.882Z,1324.00
2023-05-09T10:07:20.941Z,1345.00
2023-05-09T10:08:20.941Z,1401.00
2023-05-09T10:09:21.041Z,1415.00
2023-05-09T10:10:20.945Z,1433.00
2023-05-09T10:11:20.996Z,1456.00
2023-05-09T10:12:21.011Z,1486.00
2023-05-09T10:13:21.121Z,1522.00
2023-05-09T10:14:21.120Z,1541.00
2023-05-09T10:15:21.031Z,1580.00
2023-05-09T10:16:28.585Z,1609.00
2023-05-09T10:17:22.188Z,1632.00
2023-05-09T10:18:21.146Z,1656.00
2023-05-09T10:19:21.066Z,1692.00
2023-05-09T10:20:21.020Z,1734.00
2023-05-09T10:21:21.057Z,1757.00
2023-05-09T10:22:20.995Z,1786.00
2023-05-09T10:23:21.014Z,1818.00
2023-05-09T10:24:21.032Z,1856.00
2023-05-09T10:25:21.013Z,1870.00
2023-05-09T10:26:21.010Z,1867.00
2023-05-09T10:27:21.007Z,1833.00
2023-05-09T10:28:20.967Z,1715.00
2023-05-09T10:29:21.004Z,1438.00
2023-05-09T10:30:21.073Z,1398.00
2023-05-09T10:31:21.018Z,1173.00
2023-05-09T10:32:21.034Z,1161.00
2023-05-09T10:33:21.113Z,1194.00
2023-05-09T10:34:21.129Z,1057.00
2023-05-09T10:35:21.152Z,1100.00
2023-05-09T10:36:21.238Z,1144.00
2023-05-09T10:37:21.256Z,902.00
2023-05-09T10:38:21.309Z,749.00
2023-05-09T10:39:21.327Z,886.00
2023-05-09T10:40:21.363Z,868.00
2023-05-09T10:41:21.406Z,973.00
2023-05-09T10:42:21.413Z,1026.00
2023-05-09T10:43:21.452Z,1055.00
2023-05-09T10:44:21.589Z,1006.00
2023-05-09T10:45:21.553Z,896.00
2023-05-09T10:46:21.710Z,989.00
2023-05-09T10:47:21.741Z,1032.00
2023-05-09T10:48:21.687Z,1031.00
2023-05-09T10:49:21.766Z,909.00
2023-05-09T10:50:21.817Z,873.00
2023-05-09T10:51:21.843Z,857.00
2023-05-09T10:52:21.907Z,859.00
2023-05-09T10:53:21.954Z,917.00
2023-05-09T10:54:22.084Z,923.00
2023-05-09T10:55:22.074Z,911.00
2023-05-09T10:56:22.115Z,908.00
2023-05-09T10:57:22.172Z,901.00
2023-05-09T10:58:22.200Z,891.00
2023-05-09T10:59:22.259Z,885.00
2023-05-09T11:00:22.309Z,877.00
2023-05-09T11:01:22.368Z,864.00
2023-05-09T11:02:22.504Z,843.00
2023-05-09T11:03:22.472Z,836.00
2023-05-09T11:04:22.564Z,834.00
2023-05-09T11:05:22.456Z,827.00
2023-05-09T11:06:22.507Z,822.00
2023-05-09T11:07:22.520Z,820.00
2023-05-09T11:08:22.580Z,820.00
2023-05-09T11:09:22.615Z,819.00
2023-05-09T11:10:22.590Z,819.00
2023-05-09T11:11:22.632Z,818.00
2023-05-09T11:12:22.701Z,819.00
2023-05-09T11:13:22.766Z,818.00
2023-05-09T11:14:23.069Z,814.00
2023-05-09T11:15:22.674Z,809.00
2023-05-09T11:16:22.732Z,806.00
2023-05-09T11:17:22.900Z,802.00
2023-05-09T11:18:22.832Z,801.00
2023-05-09T11:19:22.754Z,799.00
2023-05-09T11:20:22.773Z,798.00
2023-05-09T11:21:22.809Z,798.00
2023-05-09T11:22:22.793Z,799.00
2023-05-09T11:23:22.811Z,797.00
2023-05-09T11:24:22.854Z,797.00
2023-05-09T11:25:22.890Z,799.00
2023-05-09T11:26:22.929Z,796.00
2023-05-09T11:27:22.916Z,794.00
2023-05-09T11:28:23.498Z,792.00
2023-05-09T11:29:23.066Z,795.00
2023-05-09T11:30:22.908Z,794.00
2023-05-09T11:31:22.962Z,796.00
2023-05-09T11:32:23.066Z,794.00
2023-05-09T11:33:23.001Z,793.00
2023-05-09T11:34:23.097Z,792.00
2023-05-09T11:35:23.080Z,792.00
2023-05-09T11:36:23.030Z,791.00
2023-05-09T11:37:23.107Z,795.00
2023-05-09T11:38:23.066Z,797.00
2023-05-09T11:39:23.064Z,795.00
2023-05-09T11:40:23.607Z,795.00
2023-05-09T11:41:23.184Z,794.00
2023-05-09T11:42:23.132Z,793.00
2023-05-09T11:43:23.138Z,792.00
2023-05-09T11:44:23.181Z,791.00
2023-05-09T11:45:23.580Z,791.00
2023-05-09T11:46:23.233Z,792.00
2023-05-09T11:47:23.260Z,794.00
2023-05-09T11:48:23.205Z,796.00
2023-05-09T11:49:23.212Z,795.00
2023-05-09T11:50:23.326Z,794.00
2023-05-09T11:51:23.297Z,796.00
2023-05-09T11:52:23.244Z,799.00
2023-05-09T11:53:23.247Z,801.00
2023-05-09T11:54:23.286Z,803.00
2023-05-09T11:55:23.644Z,801.00
2023-05-09T11:56:23.329Z,801.00
2023-05-09T11:57:23.296Z,800.00
2023-05-09T11:58:23.347Z,801.00
2023-05-09T11:59:23.368Z,802.00
2023-05-09T12:00:23.348Z,802.00
2023-05-09T12:01:23.363Z,801.00
2023-05-09T12:02:23.413Z,801.00
2023-05-09T12:03:23.474Z,802.00
2023-05-09T12:04:23.417Z,803.00
2023-05-09T12:05:23.455Z,803.00
2023-05-09T12:06:23.498Z,802.00
2023-05-09T12:07:23.450Z,802.00
2023-05-09T12:08:23.489Z,801.00
2023-05-09T12:09:23.490Z,800.00
2023-05-09T12:10:23.601Z,799.00
2023-05-09T12:11:23.542Z,799.00
2023-05-09T12:12:23.543Z,798.00
2023-05-09T12:13:23.632Z,799.00
2023-05-09T12:14:23.589Z,798.00
2023-05-09T12:15:23.587Z,798.00
2023-05-09T12:16:23.690Z,796.00
2023-05-09T12:17:23.705Z,791.00
2023-05-09T12:18:23.663Z,793.00
2023-05-09T12:19:23.705Z,792.00
2023-05-09T12:20:24.097Z,790.00
2023-05-09T12:21:23.715Z,791.00